Time;durP1;ratioP1;P1;durP2;ratioP2;P2;SDS_P1;SDS_P2;PMS_P1;PMS_P2;Temp;Humidity;BMP_temperature;BMP_pressure;BME280_temperature;BME280_humidity;BME280_pressure;Samples;Min_cycle;Max_cycle;Signal;HPM_P1;HPM_P2
2023/11/22 00:02:13;;;;;;;13.30;8.93;;;;;;;-2.22;90.98;100898.09;1686955;84;25748;-57
2023/11/22 00:04:40;;;;;;;15.90;8.45;;;;;;;-2.23;90.96;100895.66;1663288;84;25483;-55
2023/11/22 00:07:07;;;;;;;15.30;8.33;;;;;;;-2.24;90.86;100892.20;1689657;84;25602;-56
2023/11/22 00:09:34;;;;;;;16.42;8.45;;;;;;;-2.28;90.74;100895.78;1689671;84;25565;-56
2023/11/22 00:12:01;;;;;;;15.45;8.48;;;;;;;-2.29;90.59;100894.66;1689618;84;27357;-55
2023/11/22 00:14:27;;;;;;;14.78;8.23;;;;;;;-2.28;90.75;100897.11;1689471;84;25650;-57
2023/11/22 00:16:54;;;;;;;14.13;8.18;;;;;;;-2.28;90.81;100906.38;1689597;84;25584;-54
2023/11/22 00:19:22;;;;;;;14.78;7.97;;;;;;;-2.26;90.88;100903.52;1689573;84;25666;-56
2023/11/22 00:21:49;;;;;;;14.03;8.08;;;;;;;-2.26;90.82;100901.68;1689572;84;25455;-55
2023/11/22 00:24:16;;;;;;;14.18;7.97;;;;;;;-2.26;90.89;100908.30;1689587;84;27794;-56
2023/11/22 00:26:43;;;;;;;12.40;7.78;;;;;;;-2.28;90.59;100902.41;1689493;84;25564;-57
2023/11/22 00:29:09;;;;;;;14.35;8.13;;;;;;;-2.29;90.41;100904.74;1689521;84;25614;-56
2023/11/22 00:31:36;;;;;;;12.63;7.58;;;;;;;-2.30;90.40;100911.08;1689524;84;25807;-58
2023/11/22 00:34:03;;;;;;;13.38;8.20;;;;;;;-2.32;90.28;100914.42;1689557;84;25655;-57
2023/11/22 00:36:30;;;;;;;16.50;9.30;;;;;;;-2.33;90.28;100922.09;1689573;84;27444;-55
2023/11/22 00:38:57;;;;;;;14.35;7.90;;;;;;;-2.33;90.20;100925.27;1689543;84;25588;-56
2023/11/22 00:41:23;;;;;;;13.10;7.67;;;;;;;-2.34;90.31;100923.10;1689710;84;25573;-57
2023/11/22 00:43:50;;;;;;;50.58;28.42;;;;;;;-2.35;90.14;100925.47;1689621;84;25622;-56
2023/11/22 00:46:17;;;;;;;158.18;97.50;;;;;;;-2.35;90.24;100929.93;1689665;84;25627;-56
2023/11/22 00:48:44;;;;;;;31.57;19.45;;;;;;;-2.33;90.24;100931.89;1689812;84;27340;-55
2023/11/22 00:51:11;;;;;;;31.75;19.50;;;;;;;-2.29;90.50;100933.09;1689934;84;27141;-53
2023/11/22 00:53:38;;;;;;;34.88;19.12;;;;;;;-2.26;90.33;100939.30;1690065;85;25280;-52
2023/11/22 00:56:06;;;;;;;12.85;7.92;;;;;;;-2.27;90.09;100934.49;1689665;84;26312;-54
2023/11/22 00:58:33;;;;;;;12.30;7.95;;;;;;;-2.27;89.83;100941.64;1653853;84;25715;-53
2023/11/22 01:00:59;;;;;;;11.55;6.95;;;;;;;-2.29;89.69;100937.87;1689713;84;27374;-52
2023/11/22 01:03:26;;;;;;;11.80;7.42;;;;;;;-2.32;89.38;100940.12;1683231;84;25899;-52
2023/11/22 01:05:53;;;;;;;11.65;6.80;;;;;;;-2.34;89.38;100944.30;1688929;84;25574;-51
2023/11/22 01:08:20;;;;;;;12.90;7.08;;;;;;;-2.36;89.19;100945.02;1687697;85;26308;-52
2023/11/22 01:10:47;;;;;;;9.78;6.65;;;;;;;-2.38;89.04;100940.94;1687849;85;25560;-53
2023/11/22 01:13:14;;;;;;;11.28;7.05;;;;;;;-2.41;88.80;100947.48;1687809;85;27942;-55
2023/11/22 01:15:42;;;;;;;12.47;6.55;;;;;;;-2.43;88.82;100950.85;1640878;85;25929;-51
2023/11/22 01:18:08;;;;;;;10.63;6.40;;;;;;;-2.48;88.56;100959.94;1687719;85;25583;-51
2023/11/22 01:20:35;;;;;;;11.57;6.42;;;;;;;-2.53;88.36;100958.41;1687689;85;25793;-52
2023/11/22 01:23:02;;;;;;;12.23;7.05;;;;;;;-2.57;88.15;100949.23;1687262;85;25769;-56
2023/11/22 01:25:29;;;;;;;12.33;6.50;;;;;;;-2.59;88.23;100953.92;1686358;85;27320;-51
2023/11/22 01:27:55;;;;;;;13.55;6.22;;;;;;;-2.63;88.13;100949.03;1686604;85;25652;-51
2023/11/22 01:30:22;;;;;;;11.93;7.10;;;;;;;-2.65;88.13;100957.70;1687716;85;25507;-53
2023/11/22 01:32:49;;;;;;;11.45;6.37;;;;;;;-2.67;87.82;100956.29;1687662;85;26342;-55
2023/11/22 01:35:15;;;;;;;9.98;5.67;;;;;;;-2.72;87.79;100956.89;1687684;85;25423;-53
2023/11/22 01:37:42;;;;;;;10.60;6.20;;;;;;;-2.73;87.64;100961.06;1687720;85;27343;-54
2023/11/22 01:40:10;;;;;;;15.15;6.33;;;;;;;-2.76;87.67;100958.30;1687645;85;25788;-58
2023/11/22 01:42:39;;;;;;;13.38;6.78;;;;;;;-2.78;87.57;100966.16;1687788;85;25606;-58
2023/11/22 01:45:09;;;;;;;9.63;6.15;;;;;;;-2.78;87.65;100968.80;1687794;85;25737;-54
2023/11/22 01:47:37;;;;;;;11.30;6.40;;;;;;;-2.83;87.34;100966.77;1687853;85;25574;-55
2023/11/22 01:50:10;;;;;;;10.28;5.67;;;;;;;-2.85;87.40;100969.61;1687806;84;26921;-58
2023/11/22 01:52:38;;;;;;;9.60;5.87;;;;;;;-2.87;87.12;100967.68;1687815;85;25632;-58
2023/11/22 01:55:08;;;;;;;10.95;5.97;;;;;;;-2.89;87.15;100969.72;1687900;85;25213;-58
2023/11/22 01:57:36;;;;;;;10.53;5.70;;;;;;;-2.90;87.08;100975.22;1687751;85;26249;-55
2023/11/22 02:00:07;;;;;;;10.65;5.97;;;;;;;-2.92;87.01;100982.55;1687660;85;25577;-57
2023/11/22 02:02:36;;;;;;;9.98;5.40;;;;;;;-2.96;86.83;100978.66;1687804;85;27343;-54
2023/11/22 02:05:04;;;;;;;8.73;5.85;;;;;;;-2.96;87.04;100977.34;1687377;85;27185;-55
2023/11/22 02:07:33;;;;;;;10.95;5.53;;;;;;;-2.98;86.96;100983.35;1689354;84;25566;-57
2023/11/22 02:10:02;;;;;;;7.42;4.97;;;;;;;-2.98;86.82;100986.00;1689583;84;25804;-55
2023/11/22 02:12:29;;;;;;;9.33;5.95;;;;;;;-3.02;86.42;100977.13;1689761;84;25604;-54
2023/11/22 02:14:59;;;;;;;7.40;5.30;;;;;;;-3.04;86.53;100978.36;1689617;84;28111;-55
2023/11/22 02:17:28;;;;;;;10.58;5.80;;;;;;;-3.07;86.50;100976.92;1689691;84;25425;-57
2023/11/22 02:19:55;;;;;;;9.48;5.42;;;;;;;-3.07;86.59;100980.09;1689742;84;25413;-56
2023/11/22 02:22:23;;;;;;;9.25;5.75;;;;;;;-3.08;86.53;100989.03;1689605;84;26672;-55
2023/11/22 02:24:49;;;;;;;7.37;5.08;;;;;;;-3.09;86.71;100986.09;1689694;84;25446;-53
2023/11/22 02:27:16;;;;;;;7.83;5.85;;;;;;;-3.10;86.46;100988.42;1689607;84;29447;-54
2023/11/22 02:29:43;;;;;;;8.50;4.83;;;;;;;-3.13;86.39;100985.69;1689570;84;25810;-54
2023/11/22 02:32:10;;;;;;;9.53;5.70;;;;;;;-3.14;86.30;100991.17;1689638;84;25648;-54
2023/11/22 02:34:36;;;;;;;8.75;5.35;;;;;;;-3.16;86.23;100999.31;1689665;84;25734;-55
2023/11/22 02:37:04;;;;;;;10.08;5.28;;;;;;;-3.19;86.05;101000.52;1689727;84;25426;-53
2023/11/22 02:39:59;;;;;;;8.93;5.40;;;;;;;-3.22;86.19;101000.10;1689763;84;28248;-55
2023/11/22 02:42:28;;;;;;;9.38;5.40;;;;;;;-3.21;86.35;101004.39;1689065;84;25411;-53
2023/11/22 02:44:54;;;;;;;9.28;5.40;;;;;;;-3.23;86.12;101009.08;1689779;84;25644;-53
2023/11/22 02:47:21;;;;;;;10.03;5.20;;;;;;;-3.22;86.20;101000.10;1689576;84;26202;-53
2023/11/22 02:49:49;;;;;;;7.85;5.47;;;;;;;-3.21;86.37;101001.75;1689686;84;25470;-53
2023/11/22 02:52:16;;;;;;;9.78;5.40;;;;;;;-3.21;86.39;101008.36;1689630;84;28361;-54
2023/11/22 02:54:46;;;;;;;8.05;5.40;;;;;;;-3.21;86.25;101014.46;1689523;84;25630;-53
2023/11/22 02:57:12;;;;;;;12.15;5.28;;;;;;;-3.24;86.10;101018.02;1689710;84;25573;-51
2023/11/22 02:59:45;;;;;;;8.85;5.55;;;;;;;-3.24;86.21;101028.09;1689588;84;26639;-53
2023/11/22 03:02:12;;;;;;;11.25;5.45;;;;;;;-3.25;85.95;101031.77;1689641;84;25643;-52
2023/11/22 03:04:38;;;;;;;8.38;5.17;;;;;;;-3.27;85.83;101039.09;1689611;84;27688;-52
2023/11/22 03:07:06;;;;;;;8.90;5.20;;;;;;;-3.28;85.94;101033.48;1702454;83;25468;-54
2023/11/22 03:09:34;;;;;;;10.30;5.78;;;;;;;-3.29;85.89;101033.16;1713073;83;25549;-52
2023/11/22 03:12:02;;;;;;;9.55;5.45;;;;;;;-3.31;85.62;101031.74;1712991;83;25638;-51
2023/11/22 03:14:30;;;;;;;7.80;5.30;;;;;;;-3.34;85.53;101036.91;1713261;83;25557;-51
2023/11/22 03:16:58;;;;;;;8.83;5.35;;;;;;;-3.36;85.36;101042.91;1713044;83;27257;-52
2023/11/22 03:19:24;;;;;;;8.30;5.12;;;;;;;-3.39;85.27;101054.72;1712924;83;25382;-54
2023/11/22 03:21:51;;;;;;;7.55;4.15;;;;;;;-3.42;85.42;101058.27;1713034;83;25551;-51
2023/11/22 03:24:18;;;;;;;8.38;5.08;;;;;;;-3.47;85.09;101057.53;1713062;83;26138;-51
2023/11/22 03:26:45;;;;;;;8.63;5.45;;;;;;;-3.51;85.03;101060.24;1713077;83;25618;-51
2023/11/22 03:29:16;;;;;;;8.93;5.25;;;;;;;-3.57;84.80;101065.82;1713018;83;27667;-51
2023/11/22 03:31:43;;;;;;;10.90;5.58;;;;;;;-3.63;84.89;101069.23;1712958;83;25982;-53
2023/11/22 03:34:10;;;;;;;8.93;5.37;;;;;;;-3.66;84.92;101080.23;1713032;83;25547;-52
2023/11/22 03:36:40;;;;;;;9.73;5.30;;;;;;;-3.71;84.87;101083.97;1712915;83;26687;-51
2023/11/22 03:39:06;;;;;;;;;;;;;;;-3.74;84.68;101090.16;1715686;83;25434;-51
2023/11/22 03:41:33;;;;;;;10.93;5.67;;;;;;;-3.79;85.15;101093.38;1713010;83;27646;-51
2023/11/22 03:43:59;;;;;;;9.40;5.30;;;;;;;-3.85;85.03;101086.20;1713034;83;25744;-49
2023/11/22 03:46:26;;;;;;;9.30;4.97;;;;;;;-3.92;84.76;101095.41;1713004;83;25572;-49
2023/11/22 03:48:52;;;;;;;6.62;4.62;;;;;;;-3.98;84.65;101102.30;1712994;83;26175;-51
2023/11/22 03:51:20;;;;;;;9.98;4.97;;;;;;;-4.05;84.54;101105.89;1712988;83;25642;-50
2023/11/22 03:53:47;;;;;;;8.43;5.33;;;;;;;-4.10;84.42;101118.86;1713018;83;27628;-50
2023/11/22 03:56:13;;;;;;;9.65;5.22;;;;;;;-4.17;84.33;101117.48;1712874;83;25607;-50
2023/11/22 03:58:42;;;;;;;8.43;4.90;;;;;;;-4.20;84.60;101116.56;1712988;83;25528;-51
2023/11/22 04:01:08;;;;;;;11.93;5.95;;;;;;;-4.26;84.47;101118.64;1713212;83;25685;-53
2023/11/22 04:03:35;;;;;;;9.98;5.70;;;;;;;-4.32;84.41;101129.47;1713009;83;25387;-52
2023/11/22 04:06:02;;;;;;;7.58;4.92;;;;;;;-4.37;84.38;101142.43;1712971;83;28021;-49
2023/11/22 04:08:29;;;;;;;8.03;5.20;;;;;;;-4.41;84.35;101149.08;1687585;83;25789;-50
2023/11/22 04:10:56;;;;;;;8.10;5.00;;;;;;;-4.46;84.43;101160.23;1687565;85;25463;-52
2023/11/22 04:13:24;;;;;;;7.62;5.12;;;;;;;-4.52;84.20;101171.02;1687522;85;26305;-50
2023/11/22 04:15:52;;;;;;;8.20;4.90;;;;;;;-4.58;84.30;101174.43;1687556;85;25448;-52
2023/11/22 04:18:18;;;;;;;10.15;5.75;;;;;;;-4.63;84.27;101177.30;1663010;85;27205;-49
2023/11/22 04:20:46;;;;;;;11.53;6.17;;;;;;;-4.68;84.21;101184.48;1687461;85;25470;-48
2023/11/22 04:23:14;;;;;;;8.28;5.75;;;;;;;-4.73;84.30;101184.22;1687701;85;25463;-48
2023/11/22 04:25:43;;;;;;;9.48;5.20;;;;;;;-4.79;84.31;101181.80;1687545;85;25646;-48
2023/11/22 04:28:12;;;;;;;8.47;5.60;;;;;;;-4.81;84.17;101181.68;1687826;85;25608;-49
2023/11/22 04:30:39;;;;;;;8.15;5.17;;;;;;;-4.87;84.16;101185.86;1687640;85;28152;-50
2023/11/22 04:33:06;;;;;;;11.00;5.60;;;;;;;-4.91;84.12;101193.84;1687659;85;25959;-47
2023/11/22 04:35:36;;;;;;;10.75;5.40;;;;;;;-4.95;84.30;101193.39;1687592;85;25573;-48
2023/11/22 04:38:04;;;;;;;9.08;4.90;;;;;;;-4.99;84.37;101197.38;1687466;85;25819;-47
2023/11/22 04:40:31;;;;;;;12.70;5.53;;;;;;;-5.01;84.48;101203.86;1687758;85;25643;-50
2023/11/22 04:42:59;;;;;;;9.55;5.60;;;;;;;-5.07;84.45;101198.31;1687482;85;27387;-48
2023/11/22 04:45:25;;;;;;;10.10;6.05;;;;;;;-5.10;84.56;101212.38;1687467;85;25598;-49
2023/11/22 04:47:52;;;;;;;7.58;5.05;;;;;;;-5.14;84.45;101220.32;1687551;85;25571;-48
2023/11/22 04:50:19;;;;;;;11.03;5.40;;;;;;;-5.18;84.37;101218.55;1687507;85;26520;-48
2023/11/22 04:52:46;;;;;;;9.03;5.25;;;;;;;-5.22;84.57;101221.75;1687655;85;25590;-48
2023/11/22 04:55:13;;;;;;;9.08;5.62;;;;;;;-5.25;84.59;101213.18;1687575;85;27303;-47
2023/11/22 04:57:40;;;;;;;7.95;4.83;;;;;;;-5.28;84.68;101220.64;1687526;85;25709;-47
2023/11/22 05:00:10;;;;;;;9.08;5.08;;;;;;;-5.31;84.60;101224.95;1687594;85;25447;-47
2023/11/22 05:02:39;;;;;;;9.23;5.65;;;;;;;-5.35;84.71;101227.14;1664528;85;25689;-47
2023/11/22 05:05:13;;;;;;;9.40;5.92;;;;;;;-5.40;84.74;101226.05;1687637;85;25479;-46
2023/11/22 05:07:38;;;;;;;9.90;5.35;;;;;;;-5.46;84.71;101213.91;1687020;85;27763;-46
2023/11/22 05:10:10;;;;;;;8.83;5.62;;;;;;;-5.46;84.63;101222.33;1687521;85;25985;-47
2023/11/22 05:12:36;;;;;;;11.65;5.85;;;;;;;-5.50;84.66;101228.94;1687562;85;25445;-51
2023/11/22 05:15:11;;;;;;;7.83;5.03;;;;;;;-5.53;84.79;101240.68;1687512;85;26838;-47
2023/11/22 05:17:38;;;;;;;10.28;5.30;;;;;;;-5.56;84.85;101249.45;1687856;84;25446;-47
2023/11/22 05:20:09;;;;;;;9.68;5.70;;;;;;;-5.59;85.09;101254.56;1687807;85;27928;-47
2023/11/22 05:22:37;;;;;;;10.78;6.17;;;;;;;-5.63;84.91;101259.38;1687775;85;25876;-47
2023/11/22 05:25:07;;;;;;;10.00;5.80;;;;;;;-5.65;85.09;101263.20;1687757;85;25428;-47
2023/11/22 05:27:33;;;;;;;;;;;;;;;-5.68;85.04;101262.23;1690040;84;25601;-47
2023/11/22 05:30:00;;;;;;;11.10;6.15;;;;;;;-5.69;85.01;101265.86;1687569;85;25401;-51
2023/11/22 05:32:31;;;;;;;9.57;5.73;;;;;;;-5.73;85.01;101265.40;1687795;85;27361;-47
2023/11/22 05:34:58;;;;;;;10.20;5.87;;;;;;;-5.74;85.18;101266.38;1664389;85;25642;-48
2023/11/22 05:37:24;;;;;;;10.10;6.53;;;;;;;-5.78;85.19;101262.47;1687524;85;25625;-48
2023/11/22 05:39:51;;;;;;;9.83;5.83;;;;;;;-5.78;85.20;101265.11;1687488;85;25798;-47
2023/11/22 05:42:19;;;;;;;8.88;5.83;;;;;;;-5.83;85.05;101263.50;1687555;85;25487;-46
2023/11/22 05:44:45;;;;;;;10.03;5.80;;;;;;;-5.85;85.10;101273.41;1687598;85;27712;-46
2023/11/22 05:47:13;;;;;;;10.58;5.92;;;;;;;-5.87;85.30;101278.85;1687567;85;25990;-47
2023/11/22 05:49:40;;;;;;;11.95;5.97;;;;;;;-5.91;85.31;101274.10;1687642;85;25572;-46
2023/11/22 05:52:07;;;;;;;10.00;5.65;;;;;;;-5.93;85.33;101287.45;1687582;85;25635;-47
2023/11/22 05:54:33;;;;;;;11.03;6.25;;;;;;;-5.95;85.25;101292.08;1687685;85;25542;-46
2023/11/22 05:57:00;;;;;;;11.93;6.22;;;;;;;-5.97;85.37;101291.47;1687611;85;27243;-46
2023/11/22 05:59:28;;;;;;;14.68;5.78;;;;;;;-5.98;85.67;101296.41;1687104;84;26078;-46
2023/11/22 06:01:57;;;;;;;11.15;5.62;;;;;;;-5.99;85.46;101297.89;1687643;85;25515;-46
2023/11/22 06:04:23;;;;;;;9.30;6.22;;;;;;;-6.02;85.50;101305.16;1687559;85;25622;-47
2023/11/22 06:06:51;;;;;;;12.23;6.80;;;;;;;-6.04;85.42;101312.93;1688722;83;25477;-46
2023/11/22 06:09:19;;;;;;;12.55;6.35;;;;;;;-6.06;85.57;101317.05;1713108;83;27186;-46
2023/11/22 06:11:46;;;;;;;8.45;5.80;;;;;;;-6.06;85.68;101312.26;1712941;83;26011;-46
2023/11/22 06:14:15;;;;;;;11.40;6.30;;;;;;;-6.07;85.85;101314.59;1713051;83;25550;-46
2023/11/22 06:16:42;;;;;;;11.08;5.70;;;;;;;-6.08;85.61;101316.89;1712982;83;26701;-47
2023/11/22 06:19:09;;;;;;;11.95;6.47;;;;;;;-6.14;85.52;101308.37;1708432;83;25471;-48
2023/11/22 06:21:38;;;;;;;11.63;5.97;;;;;;;-6.13;85.45;101320.54;1713036;83;27315;-46
2023/11/22 06:24:08;;;;;;;11.05;6.42;;;;;;;-6.15;85.46;101319.39;1713222;83;26003;-47
2023/11/22 06:26:39;;;;;;;10.68;6.78;;;;;;;-6.19;85.24;101333.91;1713057;83;25397;-49
2023/11/22 06:29:06;;;;;;;15.83;7.03;;;;;;;-6.21;85.67;101338.54;1684287;83;25599;-49
2023/11/22 06:31:34;;;;;;;15.40;7.73;;;;;;;-6.22;85.75;101335.06;1713359;83;25698;-46
2023/11/22 06:34:01;;;;;;;12.53;8.10;;;;;;;-6.21;85.72;101343.81;1713078;83;27682;-47
2023/11/22 06:36:29;;;;;;;13.22;7.47;;;;;;;-6.23;85.66;101349.72;1712878;83;25980;-45
2023/11/22 06:39:00;;;;;;;11.22;6.67;;;;;;;-6.22;85.73;101354.00;1713017;83;25554;-46
2023/11/22 06:41:28;;;;;;;15.03;6.62;;;;;;;-6.22;85.78;101357.95;1713022;83;26189;-46
2023/11/22 06:43:55;;;;;;;12.18;6.75;;;;;;;-6.24;85.68;101361.27;1713051;83;25455;-46
2023/11/22 06:46:22;;;;;;;10.82;6.28;;;;;;;-6.22;85.92;101365.86;1713013;83;28356;-45
2023/11/22 06:48:50;;;;;;;9.97;5.23;;;;;;;-6.19;86.47;101362.89;1713193;83;25948;-46
2023/11/22 06:51:19;;;;;;;13.58;8.10;;;;;;;-6.13;86.61;101367.95;1713020;83;25393;-46
2023/11/22 06:53:47;;;;;;;17.20;9.05;;;;;;;-6.09;86.79;101377.17;1713077;83;25800;-45
2023/11/22 06:56:14;;;;;;;18.77;9.60;;;;;;;-6.07;86.90;101376.50;1712992;83;25637;-45
2023/11/22 06:58:42;;;;;;;16.50;9.28;;;;;;;-6.04;86.96;101383.55;1713288;83;27294;-46
2023/11/22 07:01:10;;;;;;;16.35;8.28;;;;;;;-6.04;86.68;101386.19;1712939;83;25406;-47
2023/11/22 07:03:38;;;;;;;14.63;8.15;;;;;;;-6.02;86.53;101393.42;1713000;83;25481;-47
2023/11/22 07:06:07;;;;;;;12.85;7.58;;;;;;;-6.00;86.68;101390.61;1712960;83;25610;-47
2023/11/22 07:08:36;;;;;;;11.48;7.37;;;;;;;-6.01;86.24;101399.02;1713099;83;25420;-45
2023/11/22 07:11:03;;;;;;;11.63;7.62;;;;;;;-5.98;86.29;101395.71;1713235;83;28155;-46
2023/11/22 07:13:31;;;;;;;16.25;7.60;;;;;;;-5.97;86.20;101400.81;1713248;83;25381;-47
2023/11/22 07:16:00;;;;;;;15.55;8.88;;;;;;;-5.94;86.54;101405.72;1713006;83;25629;-45
2023/11/22 07:18:27;;;;;;;15.65;9.60;;;;;;;-5.88;86.87;101404.19;1713003;83;25962;-45
2023/11/22 07:20:57;;;;;;;19.95;9.05;;;;;;;-5.82;87.29;101406.14;1713033;83;25534;-47
2023/11/22 07:23:27;;;;;;;18.82;9.10;;;;;;;-5.77;87.07;101418.31;1712969;83;27730;-46
2023/11/22 07:25:54;;;;;;;14.40;8.20;;;;;;;-5.73;86.94;101422.23;1712808;83;26153;-43
2023/11/22 07:28:22;;;;;;;15.88;8.08;;;;;;;-5.65;87.03;101436.69;1713106;83;25520;-46
2023/11/22 07:30:49;;;;;;;13.08;7.85;;;;;;;-5.64;87.23;101426.44;1713020;83;25958;-45
2023/11/22 07:33:15;;;;;;;13.85;8.33;;;;;;;-5.56;87.10;101420.82;1713074;83;25379;-47
2023/11/22 07:35:42;;;;;;;16.82;8.05;;;;;;;-5.44;87.43;101429.45;1712951;83;27324;-45
2023/11/22 07:38:12;;;;;;;15.58;9.10;;;;;;;-5.23;87.95;101427.17;1712902;83;26007;-44
2023/11/22 07:40:41;;;;;;;15.32;9.53;;;;;;;-4.91;90.18;101428.73;1712959;83;25545;-44
2023/11/22 07:43:10;;;;;;;16.97;9.45;;;;;;;-4.37;93.37;101442.23;1712944;83;26577;-44
2023/11/22 07:45:37;;;;;;;18.20;9.28;;;;;;;-3.83;94.26;101441.92;1712960;83;25453;-45
2023/11/22 07:48:06;;;;;;;18.70;10.18;;;;;;;-3.24;95.79;101442.74;1712945;83;27252;-45
2023/11/22 07:50:35;;;;;;;20.52;11.80;;;;;;;-2.53;97.58;101437.41;1712888;83;25999;-47
2023/11/22 07:53:04;;;;;;;16.15;9.20;;;;;;;-1.85;96.82;101431.96;1712964;83;25586;-47
2023/11/22 07:55:35;;;;;;;16.50;10.00;;;;;;;-1.24;96.13;101425.27;1712902;83;25510;-48
2023/11/22 07:58:02;;;;;;;10.50;7.17;;;;;;;-0.65;95.44;101431.58;1684428;83;25486;-48
2023/11/22 08:00:29;;;;;;;14.23;8.13;;;;;;;-0.03;94.26;101427.27;1712909;83;27394;-49
2023/11/22 08:02:57;;;;;;;15.30;7.92;;;;;;;0.50;93.13;101436.33;1684344;83;25745;-48
2023/11/22 08:05:25;;;;;;;10.50;6.80;;;;;;;1.10;92.46;101435.90;1712989;83;25457;-47
2023/11/22 08:07:55;;;;;;;12.53;7.87;;;;;;;1.71;91.23;101430.83;1707245;83;25611;-47
2023/11/22 08:10:25;;;;;;;10.50;7.33;;;;;;;2.24;89.51;101433.39;1687680;85;25630;-48
2023/11/22 08:12:54;;;;;;;10.63;7.47;;;;;;;2.74;88.35;101428.28;1687672;85;28414;-48
2023/11/22 08:15:21;;;;;;;13.18;7.37;;;;;;;3.23;86.82;101430.27;1687479;85;25676;-48
2023/11/22 08:17:49;;;;;;;13.18;7.30;;;;;;;3.67;85.63;101437.95;1687483;85;25397;-48
2023/11/22 08:20:17;;;;;;;13.03;7.45;;;;;;;4.10;83.66;101446.06;1687489;84;25760;-49
2023/11/22 08:22:49;;;;;;;10.93;7.40;;;;;;;4.47;81.87;101445.17;1687539;85;25657;-52
2023/11/22 08:25:18;;;;;;;11.83;7.60;;;;;;;4.79;81.14;101452.72;1687677;85;27250;-51
2023/11/22 08:27:47;;;;;;;11.12;7.40;;;;;;;5.13;80.05;101444.70;1664561;85;25635;-49
2023/11/22 08:30:15;;;;;;;9.73;6.47;;;;;;;5.49;78.77;101445.23;1687761;85;25650;-50
2023/11/22 08:32:48;;;;;;;13.13;7.57;;;;;;;5.84;77.18;101442.77;1687843;85;25614;-52
2023/11/22 08:35:15;;;;;;;12.03;7.28;;;;;;;6.01;75.18;101445.44;1687440;85;25454;-51
2023/11/22 08:37:43;;;;;;;9.63;6.95;;;;;;;6.34;74.82;101453.06;1687560;85;27443;-53
2023/11/22 08:40:14;;;;;;;12.70;8.07;;;;;;;6.66;74.21;101457.16;1687760;85;25948;-53
2023/11/22 08:42:43;;;;;;;13.30;7.78;;;;;;;6.89;72.38;101467.31;1687608;85;25654;-52
2023/11/22 08:45:11;;;;;;;;;;;;;;;7.02;71.92;101483.03;1690146;85;25448;-53
2023/11/22 08:47:40;;;;;;;11.50;6.92;;;;;;;7.33;70.50;101475.75;1687600;85;25630;-53
2023/11/22 08:50:15;;;;;;;9.73;6.47;;;;;;;7.55;68.99;101481.82;1687667;85;27520;-57
2023/11/22 08:52:44;;;;;;;12.50;7.15;;;;;;;7.77;68.64;101481.69;1687509;85;25586;-52
2023/11/22 08:55:14;;;;;;;11.78;6.78;;;;;;;8.07;67.77;101486.14;1687560;84;25449;-55
2023/11/22 08:57:41;;;;;;;10.28;7.05;;;;;;;8.44;67.04;101486.04;1687659;85;25648;-55
2023/11/22 09:00:14;;;;;;;9.58;6.97;;;;;;;8.72;65.60;101489.36;1687556;85;25457;-54
2023/11/22 09:02:42;;;;;;;9.98;6.85;;;;;;;8.87;64.16;101477.25;1687585;85;27333;-54
2023/11/22 09:05:12;;;;;;;8.08;6.28;;;;;;;8.67;60.93;101475.88;1687457;85;25898;-55
2023/11/22 09:07:41;;;;;;;11.95;6.70;;;;;;;8.75;61.99;101479.36;1687586;85;25572;-53
2023/11/22 09:10:14;;;;;;;10.10;6.90;;;;;;;9.06;62.02;101498.28;1635482;86;25668;-53
2023/11/22 09:12:44;;;;;;;8.68;6.12;;;;;;;9.33;61.48;101500.20;1659090;86;25610;-54
2023/11/22 09:15:18;;;;;;;9.88;6.42;;;;;;;9.52;60.38;101511.25;1659056;86;28318;-52
2023/11/22 09:17:47;;;;;;;8.05;5.95;;;;;;;9.54;60.11;101513.13;1677907;85;25694;-55
2023/11/22 09:20:16;;;;;;;7.45;5.30;;;;;;;9.97;59.31;101511.98;1659160;85;25632;-54
2023/11/22 09:22:52;;;;;;;9.45;6.87;;;;;;;10.03;57.99;101506.83;1659243;86;25667;-54
2023/11/22 09:25:23;;;;;;;8.55;6.10;;;;;;;10.09;56.38;101509.77;1658410;85;25652;-52
2023/11/22 09:27:58;;;;;;;8.38;5.87;;;;;;;10.16;55.94;101510.83;1659150;86;28425;-55
2023/11/22 09:30:32;;;;;;;7.33;5.58;;;;;;;9.96;54.70;101501.72;1658243;86;25751;-54
2023/11/22 09:33:03;;;;;;;8.73;4.95;;;;;;;10.05;54.93;101495.20;1659184;86;25475;-57
2023/11/22 09:35:31;;;;;;;8.23;5.28;;;;;;;10.38;55.63;101490.21;1659127;86;26340;-55
2023/11/22 09:38:06;;;;;;;9.08;5.92;;;;;;;10.74;55.42;101494.86;1659387;85;25545;-53
2023/11/22 09:40:33;;;;;;;9.63;5.85;;;;;;;10.93;54.09;101487.44;1659252;86;28025;-55
2023/11/22 09:43:02;;;;;;;8.05;5.65;;;;;;;11.03;53.07;101484.13;1659074;85;25611;-54
2023/11/22 09:45:31;;;;;;;8.23;5.72;;;;;;;11.18;52.66;101486.44;1658624;86;25634;-55
2023/11/22 09:48:00;;;;;;;7.30;5.75;;;;;;;11.75;52.70;101471.81;1659216;86;25631;-55
2023/11/22 09:50:44;;;;;;;6.90;5.35;;;;;;;11.81;51.59;101465.22;1678113;85;25589;-54
2023/11/22 09:53:19;;;;;;;7.45;5.33;;;;;;;12.03;50.15;101462.58;1659238;86;27367;-53
2023/11/22 09:55:49;;;;;;;7.20;5.37;;;;;;;12.32;50.23;101469.25;1659068;86;25579;-55
2023/11/22 09:58:19;;;;;;;8.83;6.50;;;;;;;12.83;49.35;101463.63;1659188;85;25571;-55
2023/11/22 10:00:47;;;;;;;7.78;5.45;;;;;;;13.10;48.31;101453.42;1650388;85;25499;-56
2023/11/22 10:03:14;;;;;;;7.00;5.50;;;;;;;13.13;46.94;101440.61;1659615;86;25605;-56
2023/11/22 10:05:43;;;;;;;7.80;5.55;;;;;;;13.59;47.53;101439.80;1658474;86;27719;-53
2023/11/22 10:08:11;;;;;;;6.40;5.05;;;;;;;13.97;45.98;101438.22;1657929;86;26033;-56
2023/11/22 10:10:40;;;;;;;6.97;5.25;;;;;;;14.25;45.75;101437.37;1697220;84;25767;-53
2023/11/22 10:13:06;;;;;;;8.93;6.10;;;;;;;14.62;45.05;101445.81;1697717;84;26612;-53
2023/11/22 10:15:33;;;;;;;9.55;5.65;;;;;;;14.68;43.55;101443.80;1697483;84;25213;-55
2023/11/22 10:18:01;;;;;;;6.65;5.12;;;;;;;15.00;43.58;101444.64;1697437;84;27878;-54
2023/11/22 10:20:46;;;;;;;9.65;6.10;;;;;;;15.46;43.22;101450.27;1697481;84;26026;-56
2023/11/22 10:23:15;;;;;;;6.78;5.30;;;;;;;15.64;42.96;101449.23;1697440;84;25586;-56
2023/11/22 10:25:52;;;;;;;6.58;4.65;;;;;;;15.75;41.88;101447.58;1697491;84;25641;-58
2023/11/22 10:28:22;;;;;;;9.93;7.03;;;;;;;15.55;41.43;101442.95;1697463;84;25478;-55
2023/11/22 10:30:51;;;;;;;8.93;6.33;;;;;;;15.75;41.41;101442.98;1697445;84;27967;-56
2023/11/22 10:33:22;;;;;;;6.97;5.90;;;;;;;15.69;40.83;101437.37;1697526;84;26115;-57
2023/11/22 10:35:51;;;;;;;8.30;6.10;;;;;;;15.63;40.61;101444.91;1697447;84;25340;-56
2023/11/22 10:38:20;;;;;;;5.92;5.28;;;;;;;15.81;41.31;101445.78;1697555;84;25936;-59
2023/11/22 10:40:51;;;;;;;;;;;;;;;15.96;40.60;101444.55;1668270;84;25563;-56
2023/11/22 10:43:26;;;;;;;5.62;4.83;;;;;;;16.00;39.20;101450.97;1697370;84;28206;-54
2023/11/22 10:45:53;;;;;;;6.87;4.78;;;;;;;16.05;39.64;101466.40;1696299;84;25424;-59
2023/11/22 10:48:22;;;;;;;6.78;4.47;;;;;;;16.08;39.57;101460.87;1697435;84;25570;-56
2023/11/22 10:50:48;;;;;;;6.13;4.10;;;;;;;16.09;39.14;101467.92;1697632;84;25681;-57
2023/11/22 10:53:24;;;;;;;6.85;4.55;;;;;;;16.30;39.18;101470.87;1697616;84;25480;-56
2023/11/22 10:55:57;;;;;;;6.90;5.00;;;;;;;16.33;38.86;101469.67;1697509;84;27390;-56
2023/11/22 10:58:27;;;;;;;6.42;4.30;;;;;;;16.20;38.61;101463.22;1697433;84;25413;-57
2023/11/22 11:00:58;;;;;;;5.95;5.00;;;;;;;16.16;38.46;101461.47;1697518;84;25503;-57
2023/11/22 11:03:31;;;;;;;6.50;5.20;;;;;;;16.02;38.31;101460.20;1697395;84;25652;-58
2023/11/22 11:06:07;;;;;;;6.20;4.95;;;;;;;16.08;38.54;101460.87;1697430;84;25581;-57
2023/11/22 11:08:33;;;;;;;6.75;5.08;;;;;;;16.04;37.25;101452.53;1696794;83;27341;-56
2023/11/22 11:11:04;;;;;;;5.75;5.00;;;;;;;15.75;37.80;101445.70;1713280;83;25611;-58
2023/11/22 11:13:32;;;;;;;8.30;4.47;;;;;;;15.49;37.71;101436.84;1713135;83;25420;-56
2023/11/22 11:16:06;;;;;;;6.03;4.72;;;;;;;15.22;36.99;101443.28;1712998;83;26518;-56
2023/11/22 11:18:37;;;;;;;7.08;5.25;;;;;;;15.09;37.30;101446.88;1712817;83;25643;-57
2023/11/22 11:21:13;;;;;;;7.17;5.15;;;;;;;15.12;37.64;101453.87;1713095;83;27671;-57
2023/11/22 11:23:44;;;;;;;10.58;5.35;;;;;;;15.21;37.68;101445.75;1713052;83;25567;-50
2023/11/22 11:26:22;;;;;;;5.62;4.80;;;;;;;15.13;37.83;101448.66;1712908;83;25596;-47
2023/11/22 11:28:52;;;;;;;8.10;5.58;;;;;;;15.05;37.32;101440.43;1713046;83;25987;-48